Time;durP1;ratioP1;P1;durP2;ratioP2;P2;SDS_P1;SDS_P2;PMS_P1;PMS_P2;Temp;Humidity;BMP_temperature;BMP_pressure;BME280_temperature;BME280_humidity;BME280_pressure;Samples;Min_cycle;Max_cycle;Signal;HPM_P1;HPM_P2
2021/03/18 00:00:44;;;;;;;6.55;1.25;;;;;;;15.95;42.31;102892.88;4995026;28;124267;-68
2021/03/18 00:03:14;;;;;;;7.40;1.17;;;;;;;15.93;42.03;102881.44;4995686;28;124024;-67
2021/03/18 00:05:41;;;;;;;8.55;1.80;;;;;;;15.94;42.28;102886.72;4995919;28;109972;-67
2021/03/18 00:08:07;;;;;;;8.98;1.00;;;;;;;15.95;42.23;102885.81;4996339;28;109453;-67
2021/03/18 00:10:33;;;;;;;5.97;1.27;;;;;;;15.94;42.24;102876.13;4995688;28;124242;-69
2021/03/18 00:12:59;;;;;;;4.07;0.80;;;;;;;15.96;42.07;102879.63;4995773;28;124562;-68
2021/03/18 00:15:25;;;;;;;4.70;1.23;;;;;;;15.97;42.23;102873.44;4996323;28;109002;-67
2021/03/18 00:17:51;;;;;;;6.32;1.52;;;;;;;15.99;42.13;102878.72;4994946;28;108963;-68
2021/03/18 00:20:19;;;;;;;7.60;1.38;;;;;;;15.97;42.42;102876.09;4995546;28;124276;-67
2021/03/18 00:22:46;;;;;;;3.53;1.02;;;;;;;15.96;42.42;102863.72;4994982;28;124638;-67
2021/03/18 00:25:14;;;;;;;5.80;1.15;;;;;;;15.95;42.49;102867.28;4995123;28;109551;-67
2021/03/18 00:27:41;;;;;;;4.90;1.02;;;;;;;15.96;42.63;102863.72;4977878;28;107879;-67
2021/03/18 00:30:10;;;;;;;4.20;1.90;;;;;;;15.98;42.46;102867.25;4994925;28;124102;-67
2021/03/18 00:32:37;;;;;;;3.40;1.13;;;;;;;15.97;42.28;102860.22;4979231;28;124372;-69
2021/03/18 00:35:06;;;;;;;7.30;0.88;;;;;;;15.97;42.62;102860.22;4989862;28;110205;-69
2021/03/18 00:37:34;;;;;;;5.35;1.08;;;;;;;15.97;42.59;102861.97;4978121;28;109876;-68
2021/03/18 00:40:00;;;;;;;5.00;1.50;;;;;;;15.97;42.54;102860.22;4994477;28;124635;-69
2021/03/18 00:42:26;;;;;;;5.35;1.17;;;;;;;15.98;42.51;102855.78;4992721;28;124144;-67
2021/03/18 00:44:52;;;;;;;3.20;1.20;;;;;;;15.98;42.44;102851.38;4995106;28;109424;-67
2021/03/18 00:47:19;;;;;;;7.63;1.52;;;;;;;15.98;42.54;102859.31;4994076;28;108234;-68
2021/03/18 00:49:45;;;;;;;6.82;0.95;;;;;;;15.97;42.44;102851.38;4965297;28;123166;-67
2021/03/18 00:52:12;;;;;;;2.13;0.90;;;;;;;15.98;42.62;102855.78;4991372;28;124032;-68
2021/03/18 00:54:38;;;;;;;4.43;0.85;;;;;;;15.95;42.53;102859.31;4995712;28;109324;-68
2021/03/18 00:57:05;;;;;;;5.43;1.00;;;;;;;15.97;42.74;102856.69;4977113;28;108153;-67
2021/03/18 00:59:31;;;;;;;4.93;1.10;;;;;;;15.97;42.81;102860.22;4976627;28;123953;-67
2021/03/18 01:01:57;;;;;;;5.88;1.08;;;;;;;15.98;42.47;102847.84;4978589;28;124153;-66
2021/03/18 01:04:23;;;;;;;3.55;0.90;;;;;;;15.97;42.73;102838.16;4975602;28;109555;-70
2021/03/18 01:06:50;;;;;;;4.95;1.52;;;;;;;15.97;42.70;102839.03;4975459;28;109267;-67
2021/03/18 01:09:16;;;;;;;4.13;0.95;;;;;;;15.96;42.71;102837.25;4972522;28;124500;-67
2021/03/18 01:11:42;;;;;;;2.88;0.93;;;;;;;15.95;42.53;102835.50;4974651;28;124010;-67
2021/03/18 01:14:11;;;;;;;4.32;0.93;;;;;;;15.97;42.75;102840.78;4975593;28;109197;-67
2021/03/18 01:16:48;;;;;;;4.78;1.02;;;;;;;15.96;42.81;102836.38;4974429;28;108812;-67
2021/03/18 01:19:15;;;;;;;7.35;2.03;;;;;;;15.96;42.80;102836.38;4974571;28;124400;-67
2021/03/18 01:21:47;;;;;;;4.70;0.98;;;;;;;15.96;42.67;102837.25;4975143;28;123869;-67
2021/03/18 01:24:14;;;;;;;4.32;0.85;;;;;;;15.96;42.78;102831.06;4974026;28;110103;-67
2021/03/18 01:26:42;;;;;;;7.70;1.27;;;;;;;15.95;42.76;102824.91;4975234;28;109871;-67
2021/03/18 01:29:08;;;;;;;7.38;1.33;;;;;;;15.95;42.88;102832.84;4974303;28;124239;-66
2021/03/18 01:31:35;;;;;;;3.97;1.00;;;;;;;15.95;42.79;102830.19;4956745;28;123561;-67
2021/03/18 01:34:03;;;;;;;4.18;0.70;;;;;;;15.95;42.67;102826.69;4974231;28;109139;-67
2021/03/18 01:36:31;;;;;;;3.05;0.80;;;;;;;15.96;42.63;102834.59;4975237;28;108880;-68
2021/03/18 01:38:58;;;;;;;5.32;0.95;;;;;;;15.94;42.65;102833.75;4974045;28;124808;-67
2021/03/18 01:41:26;;;;;;;6.63;1.20;;;;;;;15.96;42.51;102839.00;4956996;28;123701;-70
2021/03/18 01:43:52;;;;;;;6.22;0.88;;;;;;;15.96;42.64;102839.88;4974932;28;109327;-68
2021/03/18 01:46:18;;;;;;;6.97;1.10;;;;;;;15.95;42.66;102850.50;4975637;28;109240;-73
2021/03/18 01:48:45;;;;;;;4.70;1.02;;;;;;;15.93;42.75;102847.88;4974088;28;123918;-69
2021/03/18 01:51:14;;;;;;;4.53;1.13;;;;;;;15.95;42.59;102858.44;4973820;28;124231;-69
2021/03/18 01:53:40;;;;;;;3.17;1.42;;;;;;;15.93;42.39;102855.84;4978535;28;109437;-72
2021/03/18 01:56:07;;;;;;;4.35;0.80;;;;;;;15.94;42.79;102852.28;4975408;28;108744;-71
2021/03/18 01:58:36;;;;;;;3.03;0.85;;;;;;;15.95;42.41;102854.03;4974424;28;124420;-73
2021/03/18 02:01:11;;;;;;;3.65;0.75;;;;;;;15.96;42.48;102853.13;4973855;28;124264;-68
2021/03/18 02:03:37;;;;;;;6.32;0.95;;;;;;;15.96;42.65;102844.31;4956065;28;108357;-71
2021/03/18 02:06:05;;;;;;;4.72;0.75;;;;;;;15.96;42.63;102846.97;4974593;28;109107;-70
2021/03/18 02:08:31;;;;;;;2.15;0.90;;;;;;;15.96;42.56;102846.97;4955865;28;123210;-68
2021/03/18 02:10:57;;;;;;;2.75;0.90;;;;;;;15.94;42.75;102852.28;4973047;28;124238;-68
2021/03/18 02:13:24;;;;;;;6.30;1.02;;;;;;;15.94;42.43;102854.06;4974150;28;110581;-68
2021/03/18 02:15:57;;;;;;;6.78;1.10;;;;;;;15.93;42.39;102861.13;4974837;28;109895;-68
2021/03/18 02:18:54;;;;;;;2.38;0.90;;;;;;;15.94;42.47;102860.22;4974501;28;123816;-67
2021/03/18 02:21:50;;;;;;;2.30;0.50;;;;;;;15.95;42.66;102851.38;4971477;28;123793;-67
2021/03/18 02:24:33;;;;;;;4.93;0.80;;;;;;;15.93;42.50;102847.88;4972217;28;109272;-68
2021/03/18 02:27:17;;;;;;;4.18;0.75;;;;;;;15.93;42.57;102842.59;4974067;28;109361;-67
2021/03/18 02:30:29;;;;;;;5.55;0.90;;;;;;;15.93;42.53;102837.28;4974258;28;124971;-68
2021/03/18 02:33:22;;;;;;;4.75;0.93;;;;;;;15.93;42.33;102836.41;4973969;28;124249;-67
2021/03/18 02:36:03;;;;;;;3.20;0.70;;;;;;;15.92;42.62;102845.25;4974737;28;109150;-69
2021/03/18 02:38:37;;;;;;;3.60;0.65;;;;;;;15.93;42.46;102836.41;4955978;28;109239;-68
2021/03/18 02:41:15;;;;;;;3.33;0.98;;;;;;;15.91;42.57;102828.50;4973791;28;124133;-69
2021/03/18 02:43:46;;;;;;;4.15;0.75;;;;;;;15.94;42.42;102832.88;4973624;28;124151;-68
2021/03/18 02:46:13;;;;;;;3.95;0.80;;;;;;;15.91;42.32;102828.50;4971971;28;109809;-68
2021/03/18 02:48:43;;;;;;;1.40;0.70;;;;;;;15.89;42.60;102822.34;4969769;28;109288;-67
2021/03/18 02:51:17;;;;;;;2.97;0.60;;;;;;;15.90;42.52;102804.69;4961273;28;124278;-67
2021/03/18 02:53:46;;;;;;;3.47;0.75;;;;;;;15.91;42.62;102807.31;4962001;28;123859;-68
2021/03/18 02:56:16;;;;;;;0.80;0.32;;;;;;;15.89;42.67;102806.47;4953737;28;109801;-67
2021/03/18 02:58:44;;;;;;;3.42;0.73;;;;;;;15.89;42.63;102801.16;4954705;28;108583;-66
2021/03/18 03:01:11;;;;;;;2.05;0.45;;;;;;;15.92;42.48;102808.19;4966928;28;124603;-67
2021/03/18 03:03:38;;;;;;;4.78;0.93;;;;;;;15.90;42.21;102813.50;4967472;28;123849;-67
2021/03/18 03:06:06;;;;;;;6.15;0.90;;;;;;;15.90;42.61;102815.28;4973736;28;110170;-67
2021/03/18 03:08:34;;;;;;;3.15;0.68;;;;;;;15.89;42.41;102811.75;4974222;28;109972;-67
2021/03/18 03:11:02;;;;;;;4.93;0.73;;;;;;;15.88;42.42;102820.59;4973231;28;124133;-68
2021/03/18 03:13:32;;;;;;;3.25;0.68;;;;;;;15.86;42.35;102803.88;4973228;28;124635;-68
2021/03/18 03:16:02;;;;;;;3.60;0.47;;;;;;;15.87;42.50;102805.63;4975028;28;109515;-67
2021/03/18 03:18:29;;;;;;;1.92;0.60;;;;;;;15.88;42.29;102795.91;4977142;28;110374;-67
2021/03/18 03:20:57;;;;;;;3.28;1.35;;;;;;;15.91;42.38;102806.44;4977119;28;124130;-67
2021/03/18 03:23:26;;;;;;;3.38;1.27;;;;;;;15.89;42.31;102793.22;4975614;28;124254;-67
2021/03/18 03:25:53;;;;;;;6.45;1.30;;;;;;;15.86;42.51;102777.41;4976587;28;109305;-67
2021/03/18 03:28:21;;;;;;;1.98;0.50;;;;;;;15.88;42.54;102783.53;4977013;28;108794;-67
2021/03/18 03:30:47;;;;;;;2.95;0.75;;;;;;;15.91;42.25;102783.47;4976012;28;124187;-68
2021/03/18 03:33:13;;;;;;;2.20;0.60;;;;;;;15.89;42.36;102784.41;4975989;28;123898;-68
2021/03/18 03:35:39;;;;;;;3.15;0.80;;;;;;;15.89;42.26;102777.34;4976200;28;109541;-67
2021/03/18 03:38:06;;;;;;;2.65;0.70;;;;;;;15.91;42.30;102793.19;4959393;28;109183;-67
2021/03/18 03:40:34;;;;;;;1.38;0.77;;;;;;;15.88;42.31;102794.13;4976611;28;123992;-68
2021/03/18 03:43:01;;;;;;;2.40;0.70;;;;;;;15.86;42.57;102803.00;4958656;28;122607;-67
2021/03/18 03:45:27;;;;;;;4.47;0.88;;;;;;;15.88;42.25;102802.06;4977031;28;109112;-68
2021/03/18 03:47:54;;;;;;;4.05;0.82;;;;;;;15.87;42.38;102800.31;4976812;28;108892;-68
2021/03/18 03:50:24;;;;;;;3.63;0.57;;;;;;;15.87;42.34;102802.09;4975915;28;124045;-68
2021/03/18 03:53:15;;;;;;;2.38;0.80;;;;;;;15.86;42.30;102798.56;4976075;28;123392;-67
2021/03/18 03:55:45;;;;;;;1.90;0.65;;;;;;;15.91;42.16;102795.84;4975696;28;110175;-68
2021/03/18 03:58:33;;;;;;;1.77;0.50;;;;;;;15.87;42.35;102788.84;4976984;28;109619;-67
2021/03/18 04:01:04;;;;;;;3.33;0.60;;;;;;;15.86;42.27;102782.69;4958062;28;123555;-70
2021/03/18 04:03:33;;;;;;;1.92;0.70;;;;;;;15.86;42.28;102785.34;4975582;28;124168;-67
2021/03/18 04:06:00;;;;;;;3.42;0.80;;;;;;;15.86;42.34;102777.41;4976121;28;109462;-67
2021/03/18 04:08:28;;;;;;;1.95;0.60;;;;;;;15.86;42.20;102774.75;4975542;28;108854;-67
2021/03/18 04:10:57;;;;;;;2.67;0.55;;;;;;;15.86;42.20;102771.22;4975736;28;124269;-68
2021/03/18 04:13:26;;;;;;;2.17;0.73;;;;;;;15.89;42.26;102769.41;4960624;28;124059;-68
2021/03/18 04:15:54;;;;;;;2.65;0.50;;;;;;;15.87;42.25;102762.38;4955022;28;109183;-68
2021/03/18 04:18:24;;;;;;;4.63;0.75;;;;;;;15.88;42.25;102777.38;4955347;28;108701;-68
2021/03/18 04:20:52;;;;;;;3.88;0.73;;;;;;;15.88;42.16;102772.94;4974644;28;124347;-68
2021/03/18 04:23:21;;;;;;;2.47;0.60;;;;;;;15.86;42.10;102765.94;4973538;28;122421;-67
2021/03/18 04:25:47;;;;;;;1.48;0.50;;;;;;;15.84;42.03;102779.16;4975952;28;109109;-67
2021/03/18 04:28:14;;;;;;;2.55;0.50;;;;;;;15.82;42.28;102780.97;4975554;28;109059;-67
2021/03/18 04:30:41;;;;;;;2.10;0.40;;;;;;;15.81;42.18;102776.56;4974461;28;123975;-67
2021/03/18 04:33:10;;;;;;;1.65;0.70;;;;;;;15.84;42.26;102786.22;4972964;28;124663;-69
2021/03/18 04:35:36;;;;;;;1.02;0.50;;;;;;;15.83;42.31;102788.00;4976088;28;109428;-67
2021/03/18 04:38:04;;;;;;;3.13;0.88;;;;;;;15.83;42.23;102781.84;4976510;28;109334;-67
2021/03/18 04:40:32;;;;;;;2.88;0.65;;;;;;;15.80;42.30;102793.34;4975358;28;123975;-68
2021/03/18 04:42:58;;;;;;;2.13;0.75;;;;;;;15.80;42.25;102785.41;4975379;28;124534;-67
2021/03/18 04:45:25;;;;;;;4.85;0.70;;;;;;;15.79;42.16;102786.31;4972816;28;110679;-66
2021/03/18 04:47:53;;;;;;;3.63;1.02;;;;;;;15.78;42.15;102784.56;4975811;28;109821;-67
2021/03/18 04:50:22;;;;;;;2.15;0.70;;;;;;;15.81;42.15;102784.50;4975284;28;124690;-67
2021/03/18 04:52:49;;;;;;;1.85;0.68;;;;;;;15.82;42.17;102778.31;4973551;28;122605;-67
2021/03/18 04:55:18;;;;;;;2.83;0.43;;;;;;;15.80;42.26;102776.59;4975868;28;109764;-67
2021/03/18 04:57:48;;;;;;;2.13;0.70;;;;;;;15.78;42.10;102768.69;4957534;28;108931;-66
2021/03/18 05:00:16;;;;;;;1.73;0.73;;;;;;;15.78;42.30;102762.50;4956730;28;123760;-67
2021/03/18 05:02:43;;;;;;;1.95;0.95;;;;;;;15.79;42.21;102767.78;4974776;28;123805;-67
2021/03/18 05:05:15;;;;;;;1.65;0.63;;;;;;;15.79;42.21;102759.84;4975553;28;109878;-67
2021/03/18 05:07:44;;;;;;;1.27;0.55;;;;;;;15.78;42.23;102767.81;4957766;28;107840;-69
2021/03/18 05:10:11;;;;;;;2.92;0.95;;;;;;;15.78;42.15;102766.03;4971885;28;123980;-66
2021/03/18 05:12:38;;;;;;;4.00;0.77;;;;;;;15.76;42.15;102759.88;4974540;28;123845;-67
2021/03/18 05:15:11;;;;;;;1.73;0.63;;;;;;;15.76;42.08;102759.88;4974401;28;109083;-68
2021/03/18 05:17:37;;;;;;;1.02;0.40;;;;;;;15.77;42.15;102751.06;4975235;28;108900;-69
2021/03/18 05:20:06;;;;;;;2.28;0.63;;;;;;;15.77;42.13;102748.41;4974761;28;124630;-69
2021/03/18 05:22:32;;;;;;;2.67;0.90;;;;;;;15.78;42.08;102757.22;4974483;28;123950;-70
2021/03/18 05:25:00;;;;;;;1.25;0.32;;;;;;;15.78;42.02;102754.56;4975625;28;109143;-67
2021/03/18 05:27:26;;;;;;;2.95;0.73;;;;;;;15.75;42.09;102752.84;4974655;28;108873;-68
2021/03/18 05:29:52;;;;;;;2.33;0.65;;;;;;;15.77;41.98;102755.47;4974762;28;124079;-69
2021/03/18 05:32:18;;;;;;;1.77;0.60;;;;;;;15.75;42.02;102741.38;4956810;28;123365;-68
2021/03/18 05:34:44;;;;;;;5.78;1.35;;;;;;;15.79;42.01;102740.44;4978248;28;110160;-71
2021/03/18 05:37:11;;;;;;;3.28;0.85;;;;;;;15.84;42.07;102742.09;4955748;28;109780;-69
2021/03/18 05:39:37;;;;;;;2.78;0.45;;;;;;;15.85;41.92;102743.84;4972000;28;124311;-68
2021/03/18 05:42:03;;;;;;;3.83;0.82;;;;;;;15.83;41.94;102742.13;4954036;28;122783;-68
2021/03/18 05:44:29;;;;;;;2.10;0.68;;;;;;;15.86;41.95;102736.81;4972572;28;109933;-68
2021/03/18 05:47:01;;;;;;;1.63;0.63;;;;;;;15.84;41.85;102734.16;4972887;28;109182;-68
2021/03/18 05:49:28;;;;;;;5.97;1.17;;;;;;;15.85;41.83;102729.72;4963036;28;124864;-68
2021/03/18 05:51:56;;;;;;;2.08;0.77;;;;;;;15.82;42.14;102730.66;4971770;28;123879;-67
2021/03/18 05:54:23;;;;;;;4.07;1.10;;;;;;;15.82;41.79;102724.50;4971765;28;109082;-68
2021/03/18 05:56:49;;;;;;;2.85;0.77;;;;;;;15.84;41.79;102730.63;4972780;28;109063;-67
2021/03/18 05:59:17;;;;;;;1.42;0.63;;;;;;;15.84;41.66;102730.63;4970335;28;124396;-70
2021/03/18 06:01:44;;;;;;;2.67;0.80;;;;;;;15.87;41.67;102736.78;4972069;28;123833;-67
2021/03/18 06:04:11;;;;;;;4.72;0.73;;;;;;;15.82;41.69;102735.09;4971074;28;108912;-67
2021/03/18 06:06:38;;;;;;;5.75;0.90;;;;;;;15.87;41.56;102722.66;4970859;28;109199;-67
2021/03/18 06:09:07;;;;;;;2.00;0.80;;;;;;;15.78;41.70;102726.31;4962978;28;124395;-66
2021/03/18 06:11:34;;;;;;;2.20;0.70;;;;;;;15.83;41.72;102724.47;4960568;28;124178;-65
2021/03/18 06:14:01;;;;;;;2.00;0.77;;;;;;;15.84;41.46;102723.56;4962579;28;109783;-67
2021/03/18 06:16:29;;;;;;;4.35;1.30;;;;;;;15.83;41.71;102723.59;4962748;28;108738;-67
2021/03/18 06:18:55;;;;;;;2.05;0.75;;;;;;;15.87;41.44;102726.19;4960588;28;123940;-67
2021/03/18 06:21:50;;;;;;;3.00;0.77;;;;;;;15.84;41.60;102720.03;4961030;28;124426;-69
2021/03/18 06:24:18;;;;;;;3.78;0.60;;;;;;;15.84;41.47;102730.63;4960745;28;110059;-68
2021/03/18 06:26:45;;;;;;;2.33;0.70;;;;;;;15.83;41.47;102727.13;4959330;28;109862;-68
2021/03/18 06:29:27;;;;;;;1.92;0.82;;;;;;;15.83;41.48;102724.47;4962123;28;124724;-67
2021/03/18 06:31:54;;;;;;;5.55;0.88;;;;;;;15.83;41.55;102724.47;4962365;28;124247;-68
2021/03/18 06:34:40;;;;;;;5.60;1.00;;;;;;;15.86;41.43;102728.88;4962707;28;109176;-69
2021/03/18 06:37:35;;;;;;;2.78;0.60;;;;;;;15.86;41.44;102723.56;4958226;28;108940;-68
2021/03/18 06:40:09;;;;;;;1.75;0.80;;;;;;;15.87;41.47;102715.59;4961631;28;124088;-69
2021/03/18 06:42:36;;;;;;;2.25;0.88;;;;;;;15.89;41.37;102723.50;4973711;28;124516;-68
2021/03/18 06:45:11;;;;;;;2.33;0.77;;;;;;;15.89;41.40;102720.88;4973465;28;109073;-71
2021/03/18 06:47:50;;;;;;;3.13;1.10;;;;;;;15.90;41.32;102718.19;4957434;28;109299;-68
2021/03/18 06:50:22;;;;;;;3.63;0.93;;;;;;;15.91;41.44;102714.63;4938072;28;124537;-71
2021/03/18 06:52:49;;;;;;;2.35;0.63;;;;;;;15.90;41.36;102704.06;4953033;28;123915;-69
2021/03/18 06:55:30;;;;;;;1.58;0.75;;;;;;;15.89;41.43;102711.16;4973751;28;109118;-70
2021/03/18 06:58:19;;;;;;;6.53;0.90;;;;;;;15.92;41.39;102713.75;4943562;28;108009;-69
2021/03/18 07:00:50;;;;;;;3.28;0.70;;;;;;;15.96;41.69;102715.44;4964780;28;124459;-69
2021/03/18 07:03:49;;;;;;;5.47;0.90;;;;;;;16.01;42.05;102723.31;4973021;28;123323;-69
2021/03/18 07:06:27;;;;;;;4.57;0.55;;;;;;;16.00;42.26;102719.78;4971495;28;109004;-69
2021/03/18 07:09:13;;;;;;;6.95;1.02;;;;;;;16.07;42.77;102711.72;4974366;28;109236;-68
2021/03/18 07:11:48;;;;;;;2.63;1.00;;;;;;;16.10;42.37;102694.03;4973081;28;124312;-68
2021/03/18 07:14:14;;;;;;;2.55;0.98;;;;;;;16.11;42.52;102700.22;4966505;28;123960;-69
2021/03/18 07:16:42;;;;;;;3.25;0.82;;;;;;;16.11;42.48;102695.78;4964570;28;110925;-69
2021/03/18 07:19:08;;;;;;;3.88;1.05;;;;;;;16.12;42.58;102697.53;4962736;28;109749;-66
2021/03/18 07:21:40;;;;;;;2.47;0.95;;;;;;;16.16;42.81;102704.50;4961613;28;124756;-66
2021/03/18 07:24:36;;;;;;;5.95;1.10;;;;;;;16.08;42.86;102693.16;4976131;28;124085;-67
2021/03/18 07:27:15;;;;;;;2.35;0.55;;;;;;;16.04;42.63;102685.31;4955596;28;109705;-68
2021/03/18 07:29:49;;;;;;;3.63;0.90;;;;;;;16.01;42.57;102689.75;4957304;28;108967;-68
2021/03/18 07:32:16;;;;;;;5.70;1.10;;;;;;;16.02;42.32;102688.84;4962239;28;124847;-68
2021/03/18 07:34:44;;;;;;;7.03;1.20;;;;;;;16.05;42.11;102697.66;4972985;28;123880;-68
2021/03/18 07:37:11;;;;;;;6.07;0.93;;;;;;;16.01;42.10;102692.41;4974469;28;109437;-67
2021/03/18 07:39:39;;;;;;;6.03;1.08;;;;;;;16.01;42.04;102687.13;4976689;28;109178;-68
2021/03/18 07:42:07;;;;;;;5.95;1.30;;;;;;;15.98;42.12;102679.22;4975012;28;124061;-67
2021/03/18 07:44:40;;;;;;;6.65;1.40;;;;;;;16.00;42.25;102679.19;4976749;28;124492;-66
2021/03/18 07:47:07;;;;;;;2.92;0.82;;;;;;;16.01;41.90;102676.53;4976396;28;109094;-66
2021/03/18 07:49:39;;;;;;;4.70;1.00;;;;;;;15.98;41.98;102663.34;4959699;28;109289;-67
2021/03/18 07:52:06;;;;;;;5.13;1.15;;;;;;;16.03;41.71;102657.94;4972992;28;124386;-67
2021/03/18 07:54:33;;;;;;;3.92;1.08;;;;;;;16.02;41.75;102662.38;4976478;28;123835;-68
2021/03/18 07:56:59;;;;;;;5.00;1.73;;;;;;;16.01;41.68;102659.75;4976605;28;109766;-68
2021/03/18 07:59:31;;;;;;;5.00;1.60;;;;;;;16.03;41.70;102660.59;4969901;28;109331;-72
2021/03/18 08:02:17;;;;;;;3.17;1.23;;;;;;;16.05;41.65;102665.88;4955582;28;124083;-67
2021/03/18 08:04:51;;;;;;;4.80;1.10;;;;;;;16.14;41.63;102642.75;4956006;28;123717;-68
2021/03/18 08:07:40;;;;;;;5.53;1.08;;;;;;;16.18;41.47;102646.19;4954244;28;110615;-70
2021/03/18 08:10:08;;;;;;;2.60;1.10;;;;;;;16.16;41.24;102646.22;4955462;28;109966;-68
2021/03/18 08:12:48;;;;;;;4.53;1.10;;;;;;;16.13;41.49;102637.47;4955734;28;124265;-67
2021/03/18 08:15:18;;;;;;;4.07;0.95;;;;;;;16.11;41.21;102636.63;4967518;28;125476;-70
2021/03/18 08:17:44;;;;;;;5.38;1.48;;;;;;;16.11;41.57;102639.28;4976505;28;109346;-70
2021/03/18 08:20:11;;;;;;;2.92;1.00;;;;;;;16.12;41.43;102628.66;4993287;28;109241;-68
2021/03/18 08:22:37;;;;;;;4.43;0.95;;;;;;;16.14;41.38;102624.19;4984818;28;124429;-73
2021/03/18 08:25:23;;;;;;;4.38;1.13;;;;;;;16.18;41.32;102631.19;4961140;28;124295;-69
2021/03/18 08:27:49;;;;;;;2.05;1.00;;;;;;;16.23;41.09;102634.63;4960387;28;109482;-68
2021/03/18 08:30:22;;;;;;;3.70;1.15;;;;;;;16.26;40.94;102633.69;4963969;28;109174;-68
2021/03/18 08:32:48;;;;;;;3.28;0.93;;;;;;;16.28;41.04;102629.25;4964833;28;124464;-67
2021/03/18 08:35:27;;;;;;;2.38;0.80;;;;;;;16.33;40.78;102623.88;4969403;28;123933;-68
2021/03/18 08:37:55;;;;;;;3.53;1.10;;;;;;;16.33;40.84;102624.75;4975805;28;109023;-67
2021/03/18 08:40:22;;;;;;;5.53;1.63;;;;;;;16.34;40.92;102626.50;4962633;28;108990;-68
2021/03/18 08:42:49;;;;;;;4.32;1.52;;;;;;;16.34;40.68;102637.09;4954150;28;123139;-66
2021/03/18 08:45:18;;;;;;;4.88;1.27;;;;;;;16.33;40.71;102624.75;4958771;28;124193;-66
2021/03/18 08:47:48;;;;;;;6.53;1.35;;;;;;;16.33;40.85;102632.69;4964246;28;109616;-67
2021/03/18 08:50:34;;;;;;;6.72;1.65;;;;;;;16.33;40.91;102627.41;4966706;28;109105;-67
2021/03/18 08:53:23;;;;;;;4.40;1.20;;;;;;;16.36;40.77;102627.34;4966946;28;124056;-67
2021/03/18 08:55:49;;;;;;;7.55;1.48;;;;;;;16.46;40.66;102625.38;4962029;28;124330;-67
2021/03/18 08:58:15;;;;;;;6.13;1.80;;;;;;;16.54;40.62;102624.34;4974564;28;110434;-68
2021/03/18 09:00:45;;;;;;;2.85;1.13;;;;;;;16.59;40.86;102640.13;4959797;28;110100;-68
2021/03/18 09:03:18;;;;;;;3.97;1.30;;;;;;;16.58;40.78;102636.63;4959354;28;124499;-69
2021/03/18 09:05:55;;;;;;;6.35;1.40;;;;;;;16.60;41.22;102640.09;4968639;28;124304;-68
2021/03/18 09:08:29;;;;;;;3.45;1.27;;;;;;;16.57;41.50;102642.81;4959441;28;109718;-67
2021/03/18 09:10:55;;;;;;;6.43;1.33;;;;;;;16.55;41.54;102647.28;4977118;28;109573;-68
2021/03/18 09:13:23;;;;;;;3.75;1.23;;;;;;;16.56;41.75;102649.03;4963327;28;124099;-68
2021/03/18 09:15:53;;;;;;;8.95;2.25;;;;;;;16.57;41.89;102653.41;4958605;28;124023;-68
2021/03/18 09:18:25;;;;;;;10.23;2.10;;;;;;;16.62;41.89;102649.78;4959698;28;109669;-67
2021/03/18 09:20:59;;;;;;;12.05;1.80;;;;;;;16.74;41.58;102657.53;4961391;28;108971;-68
2021/03/18 09:23:31;;;;;;;4.30;1.38;;;;;;;16.92;40.90;102640.38;4969155;28;123762;-69
2021/03/18 09:25:59;;;;;;;3.72;1.40;;;;;;;16.61;40.33;102643.63;4957663;28;123567;-69
2021/03/18 09:28:31;;;;;;;14.77;2.40;;;;;;;16.54;41.84;102647.31;4965316;28;108701;-69
2021/03/18 09:30:57;;;;;;;9.40;1.83;;;;;;;16.79;41.76;102650.38;4980789;28;109816;-68
2021/03/18 09:33:28;;;;;;;9.85;2.30;;;;;;;16.82;41.82;102648.53;4980745;28;124480;-69
2021/03/18 09:35:59;;;;;;;9.15;1.98;;;;;;;16.78;41.96;102660.13;4979683;28;124677;-69
2021/03/18 09:38:33;;;;;;;16.13;3.65;;;;;;;16.91;42.06;102658.06;4979874;28;110179;-69
2021/03/18 09:41:01;;;;;;;5.95;2.17;;;;;;;16.99;42.31;102660.56;4965469;28;109655;-70
2021/03/18 09:43:29;;;;;;;8.05;2.08;;;;;;;16.84;42.43;102652.00;4980411;28;126169;-68
2021/03/18 09:45:59;;;;;;;18.55;3.90;;;;;;;16.77;42.44;102641.59;4994715;28;123419;-71
2021/03/18 09:48:27;;;;;;;9.65;2.30;;;;;;;16.75;42.61;102638.06;4998536;28;111010;-71
2021/03/18 09:51:02;;;;;;;12.10;2.25;;;;;;;16.76;42.31;102629.22;4960728;28;109206;-69
2021/03/18 09:53:28;;;;;;;8.82;2.08;;;;;;;16.77;41.98;102630.97;4988434;28;124366;-70
2021/03/18 09:56:01;;;;;;;14.85;2.17;;;;;;;16.80;41.75;102623.81;4983259;28;125964;-69
2021/03/18 09:58:28;;;;;;;6.07;2.28;;;;;;;16.86;41.67;102626.34;4981836;28;109871;-70
2021/03/18 10:00:54;;;;;;;12.60;2.13;;;;;;;16.93;41.68;102615.59;4944467;28;106948;-69
2021/03/18 10:03:20;;;;;;;5.60;2.13;;;;;;;16.96;41.50;102611.09;4960243;28;124796;-68
2021/03/18 10:05:46;;;;;;;7.55;1.75;;;;;;;16.97;41.23;102611.97;4962966;28;123973;-69
2021/03/18 10:08:12;;;;;;;8.65;2.30;;;;;;;16.91;41.40;102618.28;4972485;28;108976;-67
2021/03/18 10:10:38;;;;;;;7.00;1.60;;;;;;;16.95;41.03;102609.34;4947874;28;108250;-69
2021/03/18 10:13:04;;;;;;;12.38;2.08;;;;;;;16.95;41.11;102604.06;4955402;28;124353;-68
2021/03/18 10:15:31;;;;;;;8.75;2.60;;;;;;;16.98;41.15;102609.28;4964963;28;123771;-71
2021/03/18 10:17:58;;;;;;;6.70;2.35;;;;;;;17.06;40.97;102610.00;4964350;28;109534;-69
2021/03/18 10:20:29;;;;;;;9.27;2.15;;;;;;;17.11;41.08;102605.47;4967966;28;108896;-70
2021/03/18 10:23:09;;;;;;;4.05;2.13;;;;;;;17.08;41.52;102605.53;4956698;28;124302;-70
2021/03/18 10:25:37;;;;;;;7.20;2.00;;;;;;;17.04;41.56;102603.84;4963708;28;124620;-69
2021/03/18 10:28:10;;;;;;;5.38;1.85;;;;;;;17.04;41.39;102589.72;4961561;28;109490;-69
2021/03/18 10:30:54;;;;;;;7.22;2.03;;;;;;;17.02;41.30;102594.19;4956233;28;108210;-68
2021/03/18 10:33:23;;;;;;;5.35;2.03;;;;;;;16.89;41.54;102598.91;4963940;28;125118;-68
2021/03/18 10:35:52;;;;;;;7.45;1.52;;;;;;;16.83;41.66;102599.03;4970848;28;124193;-68
2021/03/18 10:38:28;;;;;;;6.68;2.03;;;;;;;16.80;41.62;102592.00;4964654;28;111073;-68
2021/03/18 10:40:55;;;;;;;7.63;2.30;;;;;;;17.01;41.21;102598.63;4959433;28;109762;-68
2021/03/18 10:43:24;;;;;;;6.97;2.20;;;;;;;17.12;40.75;102595.75;4972122;28;123935;-69
2021/03/18 10:45:52;;;;;;;7.90;2.05;;;;;;;17.13;40.68;102585.09;4976874;28;123923;-67
2021/03/18 10:48:21;;;;;;;6.82;2.05;;;;;;;17.14;40.98;102589.47;4975382;28;109549;-69
2021/03/18 10:50:48;;;;;;;7.28;2.22;;;;;;;17.17;40.55;102588.53;4976986;28;109088;-68
2021/03/18 10:53:14;;;;;;;10.35;2.70;;;;;;;17.13;40.86;102587.75;4963617;28;123905;-69
2021/03/18 10:55:47;;;;;;;8.52;2.40;;;;;;;17.26;40.63;102588.31;4964062;28;124284;-69
2021/03/18 10:58:19;;;;;;;8.05;2.55;;;;;;;17.40;40.22;102595.94;4964601;28;109050;-68
2021/03/18 11:00:46;;;;;;;6.28;3.00;;;;;;;17.36;40.19;102592.50;4971306;28;108937;-67
2021/03/18 11:03:13;;;;;;;5.35;2.45;;;;;;;17.39;40.19;102596.88;4956194;28;124238;-68
2021/03/18 11:05:50;;;;;;;4.68;2.45;;;;;;;17.28;40.51;102594.47;4970369;28;124277;-70
2021/03/18 11:08:25;;;;;;;8.27;2.78;;;;;;;17.31;40.24;102590.84;4963464;28;109478;-68
2021/03/18 11:10:53;;;;;;;6.70;2.30;;;;;;;17.27;40.47;102587.41;4958742;28;109685;-70
2021/03/18 11:13:29;;;;;;;6.93;2.55;;;;;;;17.16;40.57;102587.66;4963920;28;125206;-68
2021/03/18 11:16:05;;;;;;;4.28;1.90;;;;;;;17.08;41.03;102583.44;4965290;28;123872;-70
2021/03/18 11:18:42;;;;;;;4.75;2.03;;;;;;;17.16;40.96;102571.75;4964313;28;109159;-71
2021/03/18 11:21:22;;;;;;;7.72;2.30;;;;;;;17.32;40.29;102569.59;4973542;28;109476;-67
2021/03/18 11:23:50;;;;;;;6.47;2.50;;;;;;;17.52;40.29;102569.09;4964890;28;124053;-70
2021/03/18 11:26:24;;;;;;;4.03;2.22;;;;;;;17.45;40.40;102562.22;4976016;28;124076;-71
2021/03/18 11:28:56;;;;;;;6.10;2.20;;;;;;;17.34;40.49;102565.13;4965851;28;110248;-67
2021/03/18 11:31:25;;;;;;;11.00;2.42;;;;;;;17.33;40.53;102554.56;4965597;28;110235;-68